< < Back
Terminal Aerodrome Forecast


Current Version              Previous Versions:   1  2  3  4  5  6  7  8  9  

Terminal Aerodrome Forecast

018
FTUS42 KGSP 021128
TAFCLT
TAF
KCLT 021128Z 0212/0312 00000KT P6SM SCT100 BKN250
     FM021500 24003KT P6SM SCT050
     FM022200 26003KT P6SM BKN060
     FM030300 34003KT P6SM SCT070=

Latest METAR

061
SAUS70 KWBC 022100
MTRCLT
METAR KCLT 022052Z 23006KT 10SM FEW060 BKN250 33/17 A3000 RMK AO2 SLP147
T03330167 58024


USA.gov is the U.S. government's official web portal to all federal, state and local government web resources and services.